Time;durP1;ratioP1;P1;durP2;ratioP2;P2;SDS_P1;SDS_P2;PMS_P1;PMS_P2;Temp;Humidity;BMP_temperature;BMP_pressure;BME280_temperature;BME280_humidity;BME280_pressure;Samples;Min_cycle;Max_cycle;Signal;HPM_P1;HPM_P2
2022/10/23 00:00:28;;;;;;;26.45;16.05;;;10.10;99.90;;;;;;4949612;28;20069;-80
2022/10/23 00:02:54;;;;;;;22.52;14.65;;;10.10;99.90;;;;;;4934024;29;20083;-80
2022/10/23 00:05:21;;;;;;;30.67;15.43;;;10.10;99.90;;;;;;4950789;28;20039;-80
2022/10/23 00:07:51;;;;;;;84.90;19.42;;;10.10;99.90;;;;;;4948792;28;20051;-80
2022/10/23 00:10:17;;;;;;;26.35;14.45;;;10.10;99.90;;;;;;4946980;28;20050;-80
2022/10/23 00:12:42;;;;;;;25.23;15.13;;;10.10;99.90;;;;;;4932066;29;20044;-80
2022/10/23 00:15:08;;;;;;;27.83;14.18;;;10.10;99.90;;;;;;4948654;28;20124;-80
2022/10/23 00:17:34;;;;;;;22.75;14.05;;;10.10;99.90;;;;;;4967375;28;20054;-80
2022/10/23 00:20:00;;;;;;;20.92;13.90;;;10.10;99.90;;;;;;4948482;28;20043;-80
2022/10/23 00:22:26;;;;;;;17.17;12.82;;;10.00;99.90;;;;;;4932418;29;20135;-80
2022/10/23 00:24:51;;;;;;;20.60;14.60;;;10.10;99.90;;;;;;4948587;28;20054;-80
2022/10/23 00:27:17;;;;;;;27.00;14.77;;;10.10;99.90;;;;;;4949861;28;20061;-80
2022/10/23 00:29:45;;;;;;;40.80;15.25;;;10.10;99.90;;;;;;4952060;28;20047;-80
2022/10/23 00:32:11;;;;;;;28.60;15.48;;;10.10;99.90;;;;;;4950711;28;20050;-80
2022/10/23 00:34:36;;;;;;;24.05;15.85;;;10.10;99.90;;;;;;4934934;29;20047;-80
2022/10/23 00:37:02;;;;;;;25.90;15.00;;;10.10;99.90;;;;;;4950366;28;20047;-79
2022/10/23 00:39:28;;;;;;;26.25;14.02;;;10.20;99.90;;;;;;4934125;29;20110;-80
2022/10/23 00:41:53;;;;;;;22.05;14.50;;;10.10;99.90;;;;;;4950047;28;20114;-80
2022/10/23 00:44:19;;;;;;;36.10;14.30;;;10.10;99.90;;;;;;4950674;28;20047;-80
2022/10/23 00:46:45;;;;;;;22.98;14.70;;;10.10;99.90;;;;;;4950687;28;20141;-80
2022/10/23 00:49:11;;;;;;;24.77;15.60;;;10.10;99.90;;;;;;4949748;28;20057;-80
2022/10/23 00:51:59;;;;;;;25.58;14.93;;;10.10;99.90;;;;;;4950297;28;20140;-80
2022/10/23 00:54:28;;;;;;;22.55;14.68;;;10.00;99.90;;;;;;4966507;28;20827;-80
2022/10/23 00:56:56;;;;;;;27.38;14.43;;;10.10;99.90;;;;;;4933289;28;20082;-80
2022/10/23 00:59:22;;;;;;;26.92;14.15;;;10.00;99.90;;;;;;4949797;28;20390;-80
2022/10/23 01:01:48;;;;;;;28.40;14.85;;;10.00;99.90;;;;;;4950095;28;20055;-80
2022/10/23 01:04:14;;;;;;;23.90;14.43;;;10.00;99.90;;;;;;4946099;28;20047;-80
2022/10/23 01:06:46;;;;;;;29.70;15.77;;;10.00;99.90;;;;;;4943778;28;20046;-79
2022/10/23 01:09:16;;;;;;;22.52;14.13;;;10.00;99.90;;;;;;4949667;28;20053;-80
2022/10/23 01:11:50;;;;;;;24.67;14.50;;;10.00;99.90;;;;;;4934574;29;20055;-80
2022/10/23 01:14:40;;;;;;;26.65;15.85;;;10.10;99.90;;;;;;4949971;28;20169;-80
2022/10/23 01:17:18;;;;;;;24.52;14.10;;;10.20;99.90;;;;;;4948498;28;20083;-79
2022/10/23 01:20:12;;;;;;;25.15;15.60;;;10.20;99.90;;;;;;4949462;29;20051;-80
2022/10/23 01:22:59;;;;;;;20.88;14.45;;;10.20;99.90;;;;;;4940515;29;20051;-80
2022/10/23 01:26:03;;;;;;;27.25;15.10;;;10.20;99.90;;;;;;4949446;28;20043;-80
2022/10/23 01:28:58;;;;;;;22.63;15.40;;;10.30;99.90;;;;;;4944439;28;20500;-80
2022/10/23 01:31:35;;;;;;;20.88;14.52;;;10.30;99.90;;;;;;4945964;28;20498;-79
2022/10/23 01:34:11;;;;;;;19.27;13.77;;;10.30;99.90;;;;;;4949007;28;20095;-80
2022/10/23 01:36:43;;;;;;;28.27;15.07;;;10.30;99.90;;;;;;4947482;28;20059;-79
2022/10/23 01:39:23;;;;;;;28.95;15.50;;;10.30;99.90;;;;;;4948676;29;20039;-80
2022/10/23 01:41:56;;;;;;;23.40;13.73;;;10.30;99.90;;;;;;4949605;28;20079;-79
2022/10/23 01:44:28;;;;;;;19.10;13.40;;;10.20;99.90;;;;;;4964453;28;20049;-80
2022/10/23 01:46:55;;;;;;;24.05;13.55;;;10.20;99.90;;;;;;4963822;28;20166;-79
2022/10/23 01:49:25;;;;;;;17.75;13.18;;;10.20;99.90;;;;;;4950363;28;20413;-79
2022/10/23 01:51:56;;;;;;;22.25;13.65;;;10.20;99.90;;;;;;4949390;28;20044;-80
2022/10/23 01:54:25;;;;;;;20.23;13.43;;;10.10;99.90;;;;;;4945686;28;20039;-80
2022/10/23 01:56:53;;;;;;;17.65;13.18;;;10.10;99.90;;;;;;4948037;29;20067;-80
2022/10/23 01:59:28;;;;;;;18.88;12.68;;;10.10;99.90;;;;;;4945997;28;20606;-80
2022/10/23 02:01:56;;;;;;;21.17;13.18;;;10.10;99.90;;;;;;4946439;29;20062;-80
2022/10/23 02:04:48;;;;;;;25.65;13.02;;;10.10;99.90;;;;;;4959420;28;20047;-80
2022/10/23 02:07:13;;;;;;;28.15;13.82;;;10.10;99.90;;;;;;4945443;28;20055;-79
2022/10/23 02:09:39;;;;;;;23.40;13.10;;;10.00;99.90;;;;;;4944391;29;20050;-81
2022/10/23 02:12:20;;;;;;;18.58;13.07;;;10.00;99.90;;;;;;4964073;28;20047;-79
2022/10/23 02:15:12;;;;;;;40.85;14.70;;;10.00;99.90;;;;;;4965045;28;20350;-80
2022/10/23 02:17:44;;;;;;;19.08;12.80;;;9.90;99.90;;;;;;4944118;28;20568;-79
2022/10/23 02:20:09;;;;;;;31.73;14.43;;;9.90;99.90;;;;;;4947291;29;20178;-80
2022/10/23 02:22:46;;;;;;;20.73;12.68;;;9.90;99.90;;;;;;4947524;28;20122;-79
2022/10/23 02:25:18;;;;;;;22.35;13.20;;;9.90;99.90;;;;;;4947526;28;20055;-80
2022/10/23 02:27:48;;;;;;;21.40;13.80;;;9.90;99.90;;;;;;4947294;29;20051;-80
2022/10/23 02:30:16;;;;;;;37.95;14.25;;;9.80;99.90;;;;;;4944965;29;20047;-79
2022/10/23 02:32:49;;;;;;;21.13;13.60;;;9.80;99.90;;;;;;4942862;28;20051;-79
2022/10/23 02:35:17;;;;;;;16.70;11.75;;;9.80;99.90;;;;;;4948030;29;20051;-80
2022/10/23 02:37:42;;;;;;;27.27;15.52;;;9.80;99.90;;;;;;4931662;29;20043;-80
2022/10/23 02:40:10;;;;;;;24.35;14.02;;;9.90;99.90;;;;;;4947526;29;20070;-80
2022/10/23 02:42:40;;;;;;;20.88;13.80;;;9.90;99.90;;;;;;4947726;29;20058;-80
2022/10/23 02:45:33;;;;;;;20.67;14.73;;;9.90;99.90;;;;;;4963301;28;20074;-79
2022/10/23 02:48:22;;;;;;;22.17;15.10;;;9.80;99.90;;;;;;4943654;28;20055;-79
2022/10/23 02:50:55;;;;;;;23.73;14.88;;;9.90;99.90;;;;;;4968323;28;20047;-79
2022/10/23 02:53:42;;;;;;;20.27;14.77;;;9.90;99.90;;;;;;4967428;28;20412;-79
2022/10/23 02:56:17;;;;;;;26.42;16.17;;;9.90;99.90;;;;;;4950228;28;20143;-80
2022/10/23 02:58:55;;;;;;;24.27;14.60;;;9.80;99.90;;;;;;4945102;29;20477;-80
2022/10/23 03:01:26;;;;;;;25.88;14.90;;;9.80;99.90;;;;;;4952124;28;20078;-79
2022/10/23 03:03:58;;;;;;;24.08;14.77;;;9.80;99.90;;;;;;4945843;28;20150;-80
2022/10/23 03:06:24;;;;;;;27.13;14.38;;;9.80;99.90;;;;;;4949973;29;20106;-80
2022/10/23 03:09:00;;;;;;;19.85;13.50;;;9.70;99.90;;;;;;4967947;28;20916;-79
2022/10/23 03:11:26;;;;;;;23.60;14.15;;;9.80;99.90;;;;;;4942529;29;20040;-79
2022/10/23 03:13:52;;;;;;;24.27;14.55;;;9.70;99.90;;;;;;4950779;28;20054;-80
2022/10/23 03:16:17;;;;;;;27.25;15.25;;;9.70;99.90;;;;;;4943464;28;20107;-80
2022/10/23 03:18:43;;;;;;;24.20;15.70;;;9.80;99.90;;;;;;4952794;29;20055;-80
2022/10/23 03:21:08;;;;;;;18.15;13.88;;;9.80;99.90;;;;;;4951867;29;20039;-79
2022/10/23 03:23:34;;;;;;;28.65;16.42;;;9.70;99.90;;;;;;4950658;28;20094;-79
2022/10/23 03:25:59;;;;;;;28.45;15.27;;;9.70;99.90;;;;;;4951572;28;20054;-80
2022/10/23 03:28:25;;;;;;;24.85;14.05;;;9.70;99.90;;;;;;4966646;28;20121;-80
2022/10/23 03:30:51;;;;;;;22.30;14.38;;;9.70;99.90;;;;;;4951276;29;20054;-80
2022/10/23 03:33:17;;;;;;;25.40;15.57;;;10.00;99.90;;;;;;4950042;28;20039;-80
2022/10/23 03:35:42;;;;;;;25.55;15.60;;;9.70;99.90;;;;;;4949965;29;20040;-79
2022/10/23 03:38:08;;;;;;;29.77;16.40;;;9.70;99.90;;;;;;4935079;29;20079;-80
2022/10/23 03:40:34;;;;;;;28.10;17.15;;;9.70;99.90;;;;;;4950738;29;20134;-80
2022/10/23 03:42:59;;;;;;;27.13;16.38;;;9.80;99.90;;;;;;4950973;29;20386;-80
2022/10/23 03:45:25;;;;;;;28.73;17.73;;;9.80;99.90;;;;;;4950807;29;20089;-79
2022/10/23 03:47:50;;;;;;;28.92;16.27;;;9.80;99.90;;;;;;4950205;29;20055;-79
2022/10/23 03:50:17;;;;;;;30.77;17.20;;;9.90;99.90;;;;;;4950877;28;20047;-80
2022/10/23 03:52:43;;;;;;;31.80;17.92;;;9.90;99.90;;;;;;4950298;28;20051;-80
2022/10/23 03:55:10;;;;;;;27.48;16.85;;;9.90;99.90;;;;;;4946679;28;20122;-80
2022/10/23 03:57:36;;;;;;;29.05;17.50;;;9.90;99.90;;;;;;4947848;29;20501;-79
2022/10/23 04:00:04;;;;;;;27.70;18.33;;;9.90;99.90;;;;;;4948761;28;20047;-80
2022/10/23 04:02:30;;;;;;;38.25;18.40;;;10.00;99.90;;;;;;4950630;28;20047;-80
2022/10/23 04:04:56;;;;;;;26.00;16.27;;;10.00;99.90;;;;;;4949136;29;20054;-79
2022/10/23 04:07:21;;;;;;;37.88;19.27;;;10.00;99.90;;;;;;4932801;29;20177;-80
2022/10/23 04:09:47;;;;;;;35.33;17.60;;;10.00;99.90;;;;;;4949280;29;20098;-79
2022/10/23 04:12:12;;;;;;;27.70;17.42;;;10.00;99.90;;;;;;4942745;29;20411;-80
2022/10/23 04:14:38;;;;;;;36.05;17.15;;;10.00;99.90;;;;;;4950668;28;20035;-80
2022/10/23 04:17:03;;;;;;;28.17;17.17;;;10.00;99.90;;;;;;4934786;29;20129;-80
2022/10/23 04:19:29;;;;;;;31.40;16.63;;;10.00;99.90;;;;;;4945086;29;20044;-79
2022/10/23 04:21:56;;;;;;;25.90;17.08;;;10.00;99.90;;;;;;4948823;29;20468;-80
2022/10/23 04:24:25;;;;;;;27.42;17.98;;;10.00;99.90;;;;;;4950461;28;20078;-79
2022/10/23 04:26:51;;;;;;;34.63;16.55;;;10.00;99.90;;;;;;4951815;28;20406;-80
2022/10/23 04:29:17;;;;;;;29.23;15.95;;;10.00;99.90;;;;;;4949086;29;20067;-80
2022/10/23 04:31:43;;;;;;;32.28;17.23;;;10.00;99.90;;;;;;4951746;28;20066;-80
2022/10/23 04:34:09;;;;;;;31.77;17.75;;;10.00;99.90;;;;;;4966224;28;20661;-80
2022/10/23 04:36:34;;;;;;;36.13;17.33;;;9.90;99.90;;;;;;4949354;28;20042;-80
2022/10/23 04:39:00;;;;;;;33.00;17.73;;;9.90;99.90;;;;;;4948518;28;20130;-81
2022/10/23 04:41:26;;;;;;;26.45;16.75;;;9.90;99.90;;;;;;4949581;28;20665;-79
2022/10/23 04:43:51;;;;;;;23.23;15.80;;;9.90;99.90;;;;;;4950869;29;20521;-79
2022/10/23 04:46:17;;;;;;;30.17;17.10;;;9.90;99.90;;;;;;4948382;29;20056;-80
2022/10/23 04:48:43;;;;;;;26.30;16.75;;;9.90;99.90;;;;;;4947488;28;20047;-80
2022/10/23 04:51:09;;;;;;;30.55;16.48;;;9.90;99.90;;;;;;4948758;29;20725;-79
2022/10/23 04:53:35;;;;;;;32.40;16.75;;;9.90;99.90;;;;;;4943075;29;20126;-80
2022/10/23 04:56:01;;;;;;;27.65;16.48;;;9.80;99.90;;;;;;4948530;28;20151;-80
2022/10/23 04:58:28;;;;;;;26.15;15.80;;;9.80;99.90;;;;;;4948990;28;20515;-80
2022/10/23 05:00:53;;;;;;;26.63;16.27;;;9.80;99.90;;;;;;4949878;29;20601;-80
2022/10/23 05:03:20;;;;;;;23.70;15.27;;;9.70;99.90;;;;;;4948458;29;20047;-80
2022/10/23 05:05:54;;;;;;;26.23;15.40;;;9.70;99.90;;;;;;4932940;29;20043;-80
2022/10/23 05:08:21;;;;;;;34.00;16.55;;;9.70;99.90;;;;;;4948820;28;20498;-80
2022/10/23 05:10:48;;;;;;;34.50;15.98;;;9.70;99.90;;;;;;4932429;28;20101;-80
2022/10/23 05:13:16;;;;;;;34.75;15.07;;;9.70;99.90;;;;;;4964631;28;20035;-79
2022/10/23 05:15:41;;;;;;;28.77;16.42;;;9.70;99.90;;;;;;4949728;28;20480;-80
2022/10/23 05:18:15;;;;;;;26.23;16.60;;;9.60;99.90;;;;;;4948171;28;20167;-80
2022/10/23 05:20:42;;;;;;;27.90;16.95;;;9.60;99.90;;;;;;4948236;29;20043;-80
2022/10/23 05:23:10;;;;;;;26.70;16.83;;;10.10;99.90;;;;;;4948520;28;20240;-80
2022/10/23 05:25:36;;;;;;;26.83;15.82;;;9.60;99.90;;;;;;4964006;28;20493;-79
2022/10/23 05:28:02;;;;;;;25.75;15.60;;;9.60;99.90;;;;;;4946511;28;20043;-80
2022/10/23 05:30:27;;;;;;;25.38;15.95;;;9.60;99.90;;;;;;4963583;28;20043;-80
2022/10/23 05:32:53;;;;;;;30.55;15.48;;;9.60;99.90;;;;;;4949278;29;20173;-80
2022/10/23 05:35:22;;;;;;;32.67;16.52;;;9.60;99.90;;;;;;4947506;29;20047;-79
2022/10/23 05:37:49;;;;;;;26.75;15.90;;;9.60;99.90;;;;;;4941263;28;20079;-81
2022/10/23 05:40:16;;;;;;;28.20;15.88;;;9.60;99.90;;;;;;4945460;28;20039;-81
2022/10/23 05:42:41;;;;;;;35.42;17.38;;;9.70;99.90;;;;;;4948047;28;20482;-81
2022/10/23 05:45:07;;;;;;;29.58;17.33;;;9.70;99.90;;;;;;4930170;28;20047;-80
2022/10/23 05:47:33;;;;;;;26.25;16.20;;;9.70;99.90;;;;;;4947847;28;20051;-80
2022/10/23 05:49:58;;;;;;;27.55;15.73;;;9.70;99.90;;;;;;4949927;29;20413;-79
2022/10/23 05:52:24;;;;;;;26.88;16.02;;;9.80;99.90;;;;;;4947808;28;20132;-81
2022/10/23 05:54:50;;;;;;;26.80;17.27;;;9.80;99.90;;;;;;4965014;28;20082;-81
2022/10/23 05:57:16;;;;;;;32.60;16.80;;;9.80;99.90;;;;;;4948950;28;20134;-80
2022/10/23 05:59:42;;;;;;;29.42;16.50;;;9.80;99.90;;;;;;4949611;28;20055;-79
2022/10/23 06:02:07;;;;;;;30.30;17.25;;;9.80;99.90;;;;;;4948303;28;20039;-79
2022/10/23 06:04:34;;;;;;;32.92;17.05;;;9.80;99.90;;;;;;4946630;29;20043;-79
2022/10/23 06:07:00;;;;;;;29.77;17.25;;;9.90;99.90;;;;;;4947153;28;20051;-80
2022/10/23 06:09:25;;;;;;;26.70;16.38;;;9.90;99.90;;;;;;4931059;29;20047;-79
2022/10/23 06:11:51;;;;;;;35.78;17.10;;;9.90;99.90;;;;;;4933425;28;20043;-79
2022/10/23 06:14:17;;;;;;;33.80;17.08;;;10.00;99.90;;;;;;4943917;28;20047;-78
2022/10/23 06:16:42;;;;;;;36.22;16.80;;;10.00;99.90;;;;;;4947402;28;20090;-79
2022/10/23 06:19:12;;;;;;;25.42;16.02;;;10.00;99.90;;;;;;4950515;28;20043;-78
2022/10/23 06:21:38;;;;;;;30.73;15.93;;;10.00;99.90;;;;;;4964948;28;20043;-80
2022/10/23 06:24:06;;;;;;;33.08;16.58;;;10.00;99.90;;;;;;4949608;28;20128;-79
2022/10/23 06:26:32;;;;;;;33.47;16.95;;;10.10;99.90;;;;;;4949179;28;20576;-79
2022/10/23 06:28:57;;;;;;;33.97;17.30;;;10.10;99.90;;;;;;4949244;29;20122;-78
2022/10/23 06:31:27;;;;;;;31.88;16.95;;;10.10;99.90;;;;;;4964750;28;20075;-79
2022/10/23 06:33:57;;;;;;;29.40;16.90;;;10.10;99.90;;;;;;4949408;28;20146;-79
2022/10/23 06:36:22;;;;;;;33.28;17.63;;;10.20;99.90;;;;;;4950393;28;20101;-79
2022/10/23 06:38:48;;;;;;;39.97;16.42;;;10.20;99.90;;;;;;4950778;28;20051;-80
2022/10/23 06:41:16;;;;;;;29.00;15.32;;;10.20;99.90;;;;;;4950175;28;20050;-79
2022/10/23 06:43:42;;;;;;;26.00;15.77;;;10.20;99.90;;;;;;4965382;28;20043;-79
2022/10/23 06:46:08;;;;;;;28.73;15.90;;;10.20;99.90;;;;;;4948113;28;20367;-79
2022/10/23 06:48:34;;;;;;;32.20;17.85;;;10.30;99.90;;;;;;4948946;28;20130;-79
2022/10/23 06:51:09;;;;;;;34.47;16.15;;;10.30;99.90;;;;;;4949420;28;20135;-79
2022/10/23 06:53:35;;;;;;;33.83;16.20;;;10.30;99.90;;;;;;4949316;28;20308;-79
2022/10/23 06:56:03;;;;;;;31.08;16.05;;;10.30;99.90;;;;;;4948631;28;20708;-78
2022/10/23 06:58:29;;;;;;;26.25;14.80;;;10.40;99.90;;;;;;4947186;28;20548;-79
2022/10/23 07:00:55;;;;;;;30.35;15.43;;;10.40;99.90;;;;;;4964439;28;20091;-79
2022/10/23 07:03:21;;;;;;;22.92;14.70;;;10.40;99.90;;;;;;4964810;28;20043;-79
2022/10/23 07:05:52;;;;;;;27.83;14.90;;;10.40;99.90;;;;;;4964665;28;20414;-79
2022/10/23 07:08:18;;;;;;;25.02;14.02;;;10.50;99.90;;;;;;4946354;28;20704;-79
2022/10/23 07:10:44;;;;;;;25.10;15.27;;;10.50;99.90;;;;;;4948857;28;20047;-78
2022/10/23 07:13:10;;;;;;;31.23;15.10;;;10.50;99.90;;;;;;4948369;28;20054;-79
2022/10/23 07:15:36;;;;;;;23.30;14.10;;;10.50;99.90;;;;;;4964448;28;20039;-80
2022/10/23 07:18:03;;;;;;;24.80;13.88;;;10.60;99.90;;;;;;4948236;29;20122;-79
2022/10/23 07:20:28;;;;;;;27.73;13.82;;;10.60;99.90;;;;;;4948597;29;20146;-79
2022/10/23 07:22:55;;;;;;;25.08;14.52;;;10.30;99.90;;;;;;4964844;28;20043;-79
2022/10/23 07:25:22;;;;;;;21.25;13.75;;;10.60;99.90;;;;;;4948729;28;20047;-78
2022/10/23 07:27:47;;;;;;;25.63;13.82;;;10.70;99.90;;;;;;4944496;28;20057;-78
2022/10/23 07:30:14;;;;;;;28.48;14.07;;;10.70;99.90;;;;;;4963623;28;20090;-79
2022/10/23 07:32:40;;;;;;;22.90;13.13;;;10.80;99.90;;;;;;4947864;29;20098;-79
2022/10/23 07:35:07;;;;;;;21.70;13.13;;;10.80;99.90;;;;;;4949591;28;20479;-78
2022/10/23 07:37:33;;;;;;;34.97;12.93;;;10.80;99.90;;;;;;4952304;29;20071;-80
2022/10/23 07:39:58;;;;;;;27.10;13.57;;;10.90;99.90;;;;;;4968881;28;20102;-79
2022/10/23 07:42:24;;;;;;;21.30;12.77;;;11.00;99.90;;;;;;4952318;29;20122;-79
2022/10/23 07:44:50;;;;;;;25.50;13.10;;;11.00;99.90;;;;;;4936878;29;20133;-79
2022/10/23 07:47:15;;;;;;;18.52;12.80;;;11.10;99.90;;;;;;4951627;29;20130;-80
2022/10/23 07:49:41;;;;;;;17.90;12.57;;;11.10;99.90;;;;;;4952639;29;20509;-79
2022/10/23 07:52:06;;;;;;;22.40;12.88;;;11.20;99.90;;;;;;4951935;29;20054;-79
2022/10/23 07:54:33;;;;;;;24.33;12.60;;;11.20;99.90;;;;;;4952275;29;20389;-78
2022/10/23 07:56:59;;;;;;;33.25;13.35;;;10.90;99.90;;;;;;4951555;28;20054;-79
2022/10/23 07:59:24;;;;;;;27.10;12.60;;;11.30;99.90;;;;;;4951664;29;20122;-80
2022/10/23 08:01:51;;;;;;;19.15;12.05;;;11.30;99.90;;;;;;4950931;29;20118;-79
2022/10/23 08:04:18;;;;;;;19.27;12.30;;;11.40;99.90;;;;;;4951533;29;20430;-79
2022/10/23 08:06:43;;;;;;;25.25;11.70;;;11.40;99.90;;;;;;4967622;28;20051;-79
2022/10/23 08:09:09;;;;;;;19.02;11.75;;;11.50;99.90;;;;;;4935491;29;20066;-79
2022/10/23 08:11:35;;;;;;;19.60;11.75;;;11.00;99.90;;;;;;4950544;29;20592;-79
2022/10/23 08:14:03;;;;;;;18.85;11.80;;;11.60;99.90;;;;;;4950878;29;20055;-80
2022/10/23 08:16:30;;;;;;;19.52;11.05;;;11.60;99.90;;;;;;4951303;28;20085;-80
2022/10/23 08:18:56;;;;;;;20.75;11.40;;;11.70;99.90;;;;;;4951058;29;20178;-79
2022/10/23 08:21:21;;;;;;;21.42;11.10;;;11.70;99.90;;;;;;4951230;28;20122;-79
2022/10/23 08:23:47;;;;;;;16.27;11.07;;;11.70;99.90;;;;;;4951562;29;20490;-79
2022/10/23 08:26:13;;;;;;;22.02;10.73;;;11.80;99.90;;;;;;4950377;29;20035;-79
2022/10/23 08:28:39;;;;;;;18.75;10.55;;;11.90;99.90;;;;;;4950989;28;20062;-79
2022/10/23 08:31:16;;;;;;;14.98;10.40;;;12.00;99.90;;;;;;4935125;29;20040;-79
2022/10/23 08:33:42;;;;;;;16.05;10.43;;;12.00;99.90;;;;;;4951374;29;20047;-79
2022/10/23 08:36:20;;;;;;;18.52;9.60;;;12.10;99.90;;;;;;4951343;29;20425;-79
2022/10/23 08:38:45;;;;;;;14.63;9.55;;;12.20;99.90;;;;;;4950999;29;20055;-80
2022/10/23 08:41:29;;;;;;;15.00;9.75;;;12.20;99.90;;;;;;4950878;29;20661;-80
2022/10/23 08:44:26;;;;;;;18.80;10.13;;;12.30;99.90;;;;;;4951173;29;20106;-80
2022/10/23 08:47:07;;;;;;;20.40;9.30;;;12.30;99.90;;;;;;4948733;28;20494;-78
2022/10/23 08:49:48;;;;;;;15.75;9.40;;;12.40;99.90;;;;;;4950904;29;20468;-79
2022/10/23 08:52:21;;;;;;;15.18;9.00;;;12.50;99.90;;;;;;4950374;29;20147;-79
2022/10/23 08:54:56;;;;;;;18.77;9.10;;;12.50;99.90;;;;;;4934528;29;20106;-80
2022/10/23 08:57:24;;;;;;;13.45;9.45;;;12.60;99.90;;;;;;4950103;29;20055;-80
2022/10/23 08:59:59;;;;;;;23.25;10.38;;;12.60;99.90;;;;;;4966923;28;20053;-80
2022/10/23 09:02:31;;;;;;;15.20;9.65;;;12.70;99.90;;;;;;4951240;29;20552;-79
2022/10/23 09:04:58;;;;;;;11.50;8.60;;;12.70;99.90;;;;;;4950588;29;20054;-80
2022/10/23 09:08:09;;;;;;;22.98;8.77;;;12.80;99.90;;;;;;4948389;29;20145;-80
2022/10/23 09:10:37;;;;;;;12.93;8.27;;;12.90;99.90;;;;;;4964881;28;20047;-81
2022/10/23 09:13:40;;;;;;;9.65;7.50;;;13.00;99.90;;;;;;4945650;28;20054;-82
2022/10/23 09:16:14;;;;;;;11.35;7.65;;;13.10;99.90;;;;;;4934437;29;20874;-80
2022/10/23 09:18:41;;;;;;;12.57;7.45;;;13.20;99.90;;;;;;4950359;28;20098;-79
2022/10/23 09:21:10;;;;;;;31.00;8.48;;;13.30;99.90;;;;;;4949131;28;20510;-79
2022/10/23 09:23:36;;;;;;;11.60;7.68;;;13.30;99.90;;;;;;4950194;28;20894;-79
2022/10/23 09:26:11;;;;;;;11.93;7.40;;;13.40;99.90;;;;;;4950455;28;20054;-79
2022/10/23 09:28:47;;;;;;;13.95;7.70;;;13.40;99.90;;;;;;4949821;28;20054;-80
2022/10/23 09:31:13;;;;;;;11.93;7.57;;;13.60;99.90;;;;;;4948768;28;20117;-80
2022/10/23 09:33:39;;;;;;;14.40;7.70;;;13.60;99.90;;;;;;4950234;28;20069;-80
2022/10/23 09:36:16;;;;;;;12.43;6.85;;;13.70;99.90;;;;;;4949605;28;20429;-80
2022/10/23 09:38:45;;;;;;;12.05;7.60;;;13.80;99.90;;;;;;4934463;29;20044;-79
2022/10/23 09:41:13;;;;;;;15.23;6.93;;;13.90;99.90;;;;;;4949167;28;20134;-80
2022/10/23 09:43:39;;;;;;;13.52;7.20;;;14.00;99.90;;;;;;4947311;29;20051;-80
2022/10/23 09:46:06;;;;;;;9.25;6.70;;;14.00;99.90;;;;;;4931588;29;20043;-80
2022/10/23 09:48:32;;;;;;;11.45;6.25;;;14.10;99.90;;;;;;4946364;28;20477;-81
2022/10/23 09:51:00;;;;;;;20.42;7.75;;;14.20;99.90;;;;;;4931152;29;20463;-80
2022/10/23 09:53:34;;;;;;;14.38;6.70;;;14.30;99.90;;;;;;4915555;29;20048;-80
2022/10/23 09:56:03;;;;;;;10.07;5.78;;;14.30;99.90;;;;;;4914558;29;20048;-80
2022/10/23 09:58:35;;;;;;;19.35;7.03;;;14.30;99.90;;;;;;4930074;29;20047;-81
2022/10/23 10:01:01;;;;;;;26.20;7.25;;;14.40;99.90;;;;;;4946480;29;20039;-80
2022/10/23 10:03:27;;;;;;;11.02;6.47;;;14.50;99.90;;;;;;4948668;28;20758;-79
2022/10/23 10:05:59;;;;;;;14.85;7.22;;;14.60;99.90;;;;;;4947672;28;20043;-81
2022/10/23 10:08:29;;;;;;;18.58;6.30;;;14.70;99.90;;;;;;4946410;28;20054;-81
2022/10/23 10:11:10;;;;;;;9.75;5.88;;;14.70;99.90;;;;;;4947737;29;20373;-81
2022/10/23 10:13:55;;;;;;;10.50;5.97;;;14.80;99.90;;;;;;4947548;28;20526;-81
2022/10/23 10:16:26;;;;;;;9.80;5.60;;;14.90;99.90;;;;;;4947383;28;20036;-81
2022/10/23 10:18:58;;;;;;;11.68;6.25;;;15.00;99.90;;;;;;4949278;28;20054;-81
2022/10/23 10:21:29;;;;;;;10.65;5.55;;;15.00;99.90;;;;;;4946095;28;20063;-80
2022/10/23 10:24:11;;;;;;;12.30;5.45;;;15.50;99.90;;;;;;4930210;29;20059;-84
2022/10/23 10:26:51;;;;;;;11.80;5.43;;;15.10;99.90;;;;;;4929776;29;20110;-83
2022/10/23 10:29:42;;;;;;;14.07;5.05;;;15.20;99.90;;;;;;4929995;29;20087;-84
2022/10/23 10:32:36;;;;;;;8.38;5.45;;;15.30;99.90;;;;;;4929894;29;20459;-84
2022/10/23 10:35:17;;;;;;;8.30;5.10;;;15.40;99.90;;;;;;4915303;29;20086;-83
2022/10/23 10:38:15;;;;;;;9.07;5.30;;;15.50;99.90;;;;;;4948530;29;20129;-80
2022/10/23 10:40:46;;;;;;;15.80;5.32;;;15.50;99.90;;;;;;4965304;28;20055;-80
2022/10/23 10:43:21;;;;;;;6.22;4.80;;;15.50;99.90;;;;;;4948057;29;20577;-81
2022/10/23 10:45:48;;;;;;;11.73;4.95;;;15.50;99.90;;;;;;4947410;28;20816;-81
2022/10/23 10:48:38;;;;;;;16.63;5.53;;;15.60;99.90;;;;;;4947754;28;20044;-80
2022/10/23 10:51:23;;;;;;;7.78;4.50;;;15.60;99.90;;;;;;4947860;28;20047;-81
2022/10/23 10:54:13;;;;;;;12.50;5.05;;;15.60;99.90;;;;;;4947390;28;20050;-81
2022/10/23 10:56:42;;;;;;;7.13;4.75;;;15.60;99.90;;;;;;4946851;29;20047;-81
2022/10/23 10:59:30;;;;;;;10.00;5.30;;;15.60;99.90;;;;;;4945472;28;20078;-81
2022/10/23 11:02:10;;;;;;;10.90;5.50;;;15.60;99.90;;;;;;4948068;29;20130;-81
2022/10/23 11:04:45;;;;;;;8.98;5.10;;;15.60;99.90;;;;;;4930397;29;20066;-83
2022/10/23 11:07:14;;;;;;;17.85;6.20;;;15.60;99.90;;;;;;4948635;28;20450;-83
2022/10/23 11:09:41;;;;;;;10.15;5.00;;;15.60;99.90;;;;;;4949058;28;20047;-82
2022/10/23 11:12:16;;;;;;;15.32;5.57;;;15.60;99.90;;;;;;4952267;28;20071;-82
2022/10/23 11:14:42;;;;;;;7.82;4.72;;;16.00;99.90;;;;;;4954249;28;20055;-82
2022/10/23 11:17:34;;;;;;;7.45;4.40;;;15.50;99.90;;;;;;4952369;28;20105;-81
2022/10/23 11:20:55;;;;;;;7.45;4.70;;;15.50;99.90;;;;;;4952838;28;20458;-80
2022/10/23 11:24:01;;;;;;;10.40;4.60;;;15.40;99.90;;;;;;4922510;28;20061;-80
2022/10/23 11:26:40;;;;;;;11.52;4.85;;;15.40;99.90;;;;;;4953413;28;20137;-80
2022/10/23 11:29:34;;;;;;;7.28;4.82;;;15.40;99.90;;;;;;4936382;28;20125;-81
2022/10/23 11:32:24;;;;;;;11.38;5.05;;;15.40;99.90;;;;;;4953549;28;20055;-80
2022/10/23 11:35:11;;;;;;;9.38;4.75;;;15.40;99.90;;;;;;4953739;28;20442;-80
2022/10/23 11:37:36;;;;;;;13.88;5.13;;;15.30;99.90;;;;;;4952014;28;20055;-80
2022/10/23 11:40:05;;;;;;;16.20;5.20;;;15.30;99.90;;;;;;4968434;28;20782;-80
2022/10/23 11:42:47;;;;;;;19.80;4.93;;;15.40;99.90;;;;;;4951770;28;20106;-80
2022/10/23 11:45:33;;;;;;;9.13;4.35;;;15.40;99.90;;;;;;4967981;28;20051;-79
2022/10/23 11:48:17;;;;;;;8.65;4.60;;;15.40;99.90;;;;;;4952219;28;20421;-80
2022/10/23 11:50:45;;;;;;;15.63;6.97;;;15.40;99.90;;;;;;4952504;28;20165;-82
2022/10/23 11:53:29;;;;;;;18.27;11.18;;;15.40;99.90;;;;;;4952276;28;20047;-82
2022/10/23 11:56:00;;;;;;;9.05;5.65;;;15.50;99.90;;;;;;4951471;28;20059;-80
2022/10/23 11:58:43;;;;;;;11.18;5.97;;;15.50;99.90;;;;;;4952935;28;20047;-80
2022/10/23 12:01:27;;;;;;;15.68;5.90;;;15.50;99.90;;;;;;4952132;28;20086;-79
2022/10/23 12:04:11;;;;;;;14.77;8.57;;;15.50;99.90;;;;;;4952109;28;20058;-80
2022/10/23 12:06:58;;;;;;;10.43;5.72;;;15.50;99.90;;;;;;4951941;28;20055;-80
2022/10/23 12:09:26;;;;;;;12.55;4.45;;;15.50;99.90;;;;;;4951184;28;20647;-79
2022/10/23 12:12:13;;;;;;;5.97;3.85;;;15.60;99.90;;;;;;4951265;28;20053;-80
2022/10/23 12:14:50;;;;;;;13.52;4.30;;;15.60;99.90;;;;;;4951598;28;20051;-80
2022/10/23 12:17:21;;;;;;;12.13;4.30;;;15.60;99.90;;;;;;4951165;28;20142;-80
2022/10/23 12:19:50;;;;;;;11.10;4.63;;;15.70;99.90;;;;;;4951623;28;20061;-80
2022/10/23 12:22:16;;;;;;;12.60;4.55;;;15.70;99.90;;;;;;4951326;28;20143;-79
2022/10/23 12:24:59;;;;;;;14.68;4.60;;;15.70;99.90;;;;;;4951377;28;20055;-80
2022/10/23 12:27:47;;;;;;;16.80;4.53;;;15.70;99.90;;;;;;4952269;28;20150;-81
2022/10/23 12:30:18;;;;;;;7.50;4.03;;;15.80;99.90;;;;;;4952428;28;20081;-80
2022/10/23 12:33:06;;;;;;;7.68;4.38;;;15.80;99.90;;;;;;4951649;28;20050;-79
2022/10/23 12:36:15;;;;;;;9.15;3.78;;;15.80;99.90;;;;;;4967336;28;20051;-80
2022/10/23 12:38:46;;;;;;;19.60;4.28;;;15.90;99.90;;;;;;4950346;28;20573;-80
2022/10/23 12:41:20;;;;;;;16.33;4.50;;;15.80;99.90;;;;;;4950969;28;20051;-80
2022/10/23 12:43:53;;;;;;;10.30;4.13;;;15.90;99.90;;;;;;4952709;28;20134;-80
2022/10/23 12:46:32;;;;;;;10.60;4.85;;;15.90;99.90;;;;;;4950780;28;20117;-80
2022/10/23 12:48:59;;;;;;;6.90;4.00;;;15.90;99.90;;;;;;4934995;28;20047;-80
2022/10/23 12:51:33;;;;;;;7.43;3.50;;;15.90;99.90;;;;;;4952148;28;20066;-79
2022/10/23 12:54:00;;;;;;;13.05;4.78;;;15.90;99.90;;;;;;4950862;28;20043;-80